createdAt,value
2023-05-19T00:00:19.752Z,9.00
2023-05-19T00:02:21.561Z,8.98
2023-05-19T00:04:23.284Z,8.96
2023-05-19T00:06:27.608Z,8.94
2023-05-19T00:08:31.918Z,8.93
2023-05-19T00:10:33.954Z,8.86
2023-05-19T00:12:36.697Z,8.79
2023-05-19T00:14:38.557Z,8.76
2023-05-19T00:16:40.457Z,8.75
2023-05-19T00:18:43.047Z,8.73
2023-05-19T00:20:44.750Z,8.71
2023-05-19T00:22:46.252Z,8.68
2023-05-19T00:24:47.850Z,8.66
2023-05-19T00:26:49.406Z,8.61
2023-05-19T00:28:51.221Z,8.56
2023-05-19T00:30:52.723Z,8.52
2023-05-19T00:32:54.315Z,8.49
2023-05-19T00:34:55.873Z,8.47
2023-05-19T00:36:57.437Z,8.43
2023-05-19T00:38:58.984Z,8.41
2023-05-19T00:41:01.756Z,8.40
2023-05-19T00:43:05.426Z,8.40
2023-05-19T00:45:07.512Z,8.39
2023-05-19T00:47:09.172Z,8.37
2023-05-19T00:49:10.721Z,8.32
2023-05-19T00:51:16.689Z,8.23
2023-05-19T00:53:19.384Z,8.18
2023-05-19T00:55:23.207Z,8.18
2023-05-19T00:57:26.018Z,8.15
2023-05-19T00:59:27.808Z,8.13
2023-05-19T01:01:29.509Z,8.12
2023-05-19T01:03:36.102Z,8.12
2023-05-19T01:05:41.992Z,8.12
2023-05-19T01:07:43.992Z,8.10
2023-05-19T01:09:47.024Z,8.10
2023-05-19T01:11:51.488Z,8.08
2023-05-19T01:13:53.091Z,8.05
2023-05-19T01:15:57.646Z,8.03
2023-05-19T01:18:08.122Z,8.02
2023-05-19T01:20:19.961Z,7.99
2023-05-19T01:22:32.349Z,7.97
2023-05-19T01:25:16.317Z,7.93
2023-05-19T01:27:45.529Z,7.89
2023-05-19T01:30:25.383Z,7.86
2023-05-19T01:32:29.154Z,7.83
2023-05-19T01:34:31.394Z,7.85
2023-05-19T01:36:33.760Z,7.84
2023-05-19T01:38:38.376Z,7.83
2023-05-19T01:40:41.930Z,7.82
2023-05-19T01:42:45.516Z,7.80
2023-05-19T01:44:47.526Z,7.77
2023-05-19T01:46:49.790Z,7.72
2023-05-19T01:48:52.515Z,7.72
2023-05-19T01:50:57.235Z,7.70
2023-05-19T01:52:59.734Z,7.70
2023-05-19T01:55:01.246Z,7.71
2023-05-19T01:57:25.832Z,7.70
2023-05-19T01:59:57.929Z,7.70
2023-05-19T02:02:07.757Z,7.70
2023-05-19T02:04:15.151Z,7.69
2023-05-19T02:06:35.373Z,7.67
2023-05-19T02:09:00.157Z,7.67
2023-05-19T02:11:14.441Z,7.66
2023-05-19T02:13:21.348Z,7.63
2023-05-19T02:15:27.098Z,7.64
2023-05-19T02:17:33.062Z,7.63
2023-05-19T02:19:38.525Z,7.64
2023-05-19T02:21:40.049Z,7.62
2023-05-19T02:23:42.058Z,7.62
2023-05-19T02:25:43.628Z,7.62
2023-05-19T02:27:45.205Z,7.62
2023-05-19T02:29:46.716Z,7.61
2023-05-19T02:31:48.430Z,7.60
2023-05-19T02:33:49.936Z,7.59
2023-05-19T02:35:51.495Z,7.59
2023-05-19T02:37:54.070Z,7.57
2023-05-19T02:39:55.656Z,7.55
2023-05-19T02:41:57.167Z,7.54
2023-05-19T02:43:58.665Z,7.53
2023-05-19T02:46:00.403Z,7.53
2023-05-19T02:48:02.016Z,7.52
2023-05-19T02:50:03.788Z,7.51
2023-05-19T02:52:06.022Z,7.49
2023-05-19T02:54:07.502Z,7.47
2023-05-19T02:56:09.016Z,7.46
2023-05-19T02:58:10.822Z,7.43
2023-05-19T03:00:12.879Z,7.44
2023-05-19T03:02:14.515Z,7.43
2023-05-19T03:04:16.130Z,7.41
2023-05-19T03:06:18.159Z,7.39
2023-05-19T03:08:20.156Z,7.38
2023-05-19T03:10:21.733Z,7.36
2023-05-19T03:12:23.267Z,7.34
2023-05-19T03:14:24.824Z,7.32
2023-05-19T03:16:28.129Z,7.30
2023-05-19T03:18:29.800Z,7.27
2023-05-19T03:20:31.575Z,7.25
2023-05-19T03:22:33.667Z,7.24
2023-05-19T03:24:35.206Z,7.20
2023-05-19T03:26:36.733Z,7.19
2023-05-19T03:28:38.228Z,7.16
2023-05-19T03:30:39.735Z,7.15
2023-05-19T03:32:41.715Z,7.11
2023-05-19T03:34:43.317Z,7.09
2023-05-19T03:36:45.092Z,7.06
2023-05-19T03:38:46.614Z,7.06
2023-05-19T03:40:48.096Z,7.08
2023-05-19T03:42:49.709Z,7.06
2023-05-19T03:44:51.596Z,7.04
2023-05-19T03:46:53.106Z,7.05
2023-05-19T03:48:54.604Z,7.05
2023-05-19T03:50:56.108Z,7.05
2023-05-19T03:52:57.614Z,7.06
2023-05-19T03:54:59.093Z,7.07
2023-05-19T03:57:00.631Z,7.07
2023-05-19T03:59:02.129Z,7.07
2023-05-19T04:01:03.675Z,7.08
2023-05-19T04:03:05.218Z,7.08
2023-05-19T04:05:08.585Z,7.09
2023-05-19T04:07:10.077Z,7.11
2023-05-19T04:09:13.527Z,7.13
2023-05-19T04:11:15.325Z,7.15
2023-05-19T04:13:16.830Z,7.15
2023-05-19T04:15:18.357Z,7.16
2023-05-19T04:17:19.897Z,7.18
2023-05-19T04:19:21.414Z,7.18
2023-05-19T04:21:23.092Z,7.20
2023-05-19T04:23:24.675Z,7.22
2023-05-19T04:25:28.141Z,7.25
2023-05-19T04:27:31.933Z,7.27
2023-05-19T04:29:33.737Z,7.30
2023-05-19T04:31:36.037Z,7.32
2023-05-19T04:33:38.021Z,7.34
2023-05-19T04:35:39.791Z,7.36
2023-05-19T04:37:41.273Z,7.38
2023-05-19T04:39:44.272Z,7.41
2023-05-19T04:41:45.843Z,7.46
2023-05-19T04:43:48.364Z,7.49
2023-05-19T04:45:51.445Z,7.53
2023-05-19T04:47:53.109Z,7.60
2023-05-19T04:49:55.692Z,7.66
2023-05-19T04:51:57.286Z,7.74
2023-05-19T04:53:58.763Z,7.80
2023-05-19T04:56:03.643Z,7.86
2023-05-19T04:58:05.186Z,7.92
2023-05-19T05:00:09.132Z,7.97
2023-05-19T05:02:10.827Z,8.06
2023-05-19T05:04:12.368Z,8.17
2023-05-19T05:06:13.950Z,8.29
2023-05-19T05:08:21.871Z,8.40
2023-05-19T05:10:23.577Z,8.55
2023-05-19T05:12:25.419Z,8.68
2023-05-19T05:14:27.277Z,8.77
2023-05-19T05:16:29.002Z,8.89
2023-05-19T05:18:30.780Z,8.99
2023-05-19T05:20:32.913Z,9.11
2023-05-19T05:22:35.056Z,9.23
2023-05-19T05:24:36.884Z,9.32
2023-05-19T05:26:38.643Z,9.40
2023-05-19T05:28:41.475Z,9.48
2023-05-19T05:30:43.696Z,9.52
2023-05-19T05:32:45.530Z,9.52
2023-05-19T05:34:47.076Z,9.56
2023-05-19T05:36:48.627Z,9.61
2023-05-19T05:38:50.156Z,9.66
2023-05-19T05:40:51.832Z,9.71
2023-05-19T05:42:55.650Z,9.79
2023-05-19T05:44:57.137Z,9.86
2023-05-19T05:46:58.899Z,9.92
2023-05-19T05:49:00.613Z,9.99
2023-05-19T05:51:02.462Z,10.07
2023-05-19T05:53:06.562Z,10.15
2023-05-19T05:55:08.928Z,10.23
2023-05-19T05:57:10.790Z,10.30
2023-05-19T05:59:12.310Z,10.38
2023-05-19T06:01:16.762Z,10.47
2023-05-19T06:03:18.337Z,10.55
2023-05-19T06:05:20.392Z,10.65
2023-05-19T06:07:22.047Z,10.73
2023-05-19T06:09:23.619Z,10.81
2023-05-19T06:11:25.177Z,10.88
2023-05-19T06:13:26.706Z,10.95
2023-05-19T06:15:28.397Z,11.03
2023-05-19T06:17:30.079Z,11.09
2023-05-19T06:19:32.174Z,11.19
2023-05-19T06:21:33.685Z,11.29
2023-05-19T06:23:35.167Z,11.35
2023-05-19T06:25:36.681Z,11.42
2023-05-19T06:27:38.184Z,11.50
2023-05-19T06:29:39.845Z,11.57
2023-05-19T06:31:41.475Z,11.65
2023-05-19T06:33:43.070Z,11.73
2023-05-19T06:35:44.613Z,11.77
2023-05-19T06:37:46.204Z,11.86
2023-05-19T06:39:49.330Z,11.93
2023-05-19T06:41:51.068Z,11.99
2023-05-19T06:43:52.569Z,12.04
2023-05-19T06:45:54.088Z,12.10
2023-05-19T06:47:58.264Z,12.14
2023-05-19T06:49:59.828Z,12.16
2023-05-19T06:52:01.387Z,12.26
2023-05-19T06:54:03.009Z,12.31
2023-05-19T06:56:04.820Z,12.37
2023-05-19T06:58:06.474Z,12.45
2023-05-19T07:00:17.032Z,12.55
2023-05-19T07:02:19.919Z,12.61
2023-05-19T07:04:21.441Z,12.59
2023-05-19T07:06:23.102Z,12.66
2023-05-19T07:08:24.902Z,12.73
2023-05-19T07:10:26.469Z,12.81
2023-05-19T07:12:27.980Z,12.89
2023-05-19T07:14:29.574Z,12.98
2023-05-19T07:16:31.192Z,13.08
2023-05-19T07:18:32.845Z,13.15
2023-05-19T07:20:34.545Z,13.19
2023-05-19T07:22:36.923Z,13.26
2023-05-19T07:24:38.430Z,13.30
2023-05-19T07:26:41.397Z,13.38
2023-05-19T07:28:43.491Z,13.44
2023-05-19T07:30:45.114Z,13.49
2023-05-19T07:32:46.806Z,13.55
2023-05-19T07:34:48.422Z,13.61
2023-05-19T07:36:51.459Z,13.69
2023-05-19T07:38:53.029Z,13.73
2023-05-19T07:40:54.638Z,13.71
2023-05-19T07:42:56.459Z,13.79
2023-05-19T07:44:57.996Z,13.87
2023-05-19T07:46:59.557Z,13.94
2023-05-19T07:49:01.072Z,14.02
2023-05-19T07:51:02.826Z,14.11
2023-05-19T07:53:04.329Z,14.19
2023-05-19T07:55:06.223Z,14.26
2023-05-19T07:57:07.725Z,14.32
2023-05-19T07:59:09.261Z,14.36
2023-05-19T08:01:10.819Z,14.42
2023-05-19T08:03:13.353Z,14.48
2023-05-19T08:05:15.142Z,14.53
2023-05-19T08:07:16.649Z,14.59
2023-05-19T08:09:18.767Z,14.65
2023-05-19T08:11:21.407Z,14.69
2023-05-19T08:13:22.903Z,14.73
2023-05-19T08:15:25.328Z,14.81
2023-05-19T08:17:26.973Z,14.87
2023-05-19T08:19:28.625Z,14.92
2023-05-19T08:21:31.309Z,14.96
2023-05-19T08:23:33.167Z,14.97
2023-05-19T08:25:34.668Z,15.04
2023-05-19T08:27:36.311Z,15.08
2023-05-19T08:29:38.247Z,15.12
2023-05-19T08:31:39.869Z,15.14
2023-05-19T08:33:41.358Z,15.18
2023-05-19T08:35:43.460Z,15.21
2023-05-19T08:37:44.971Z,15.24
2023-05-19T08:39:46.735Z,15.32
2023-05-19T08:41:48.285Z,15.44
2023-05-19T08:43:50.193Z,15.51
2023-05-19T08:45:54.148Z,15.58
2023-05-19T08:47:56.036Z,15.67
2023-05-19T08:50:10.948Z,15.74
2023-05-19T08:52:42.366Z,15.76
2023-05-19T08:54:50.897Z,15.79
2023-05-19T08:56:52.572Z,15.89
2023-05-19T08:58:54.913Z,15.93
2023-05-19T09:00:57.770Z,15.95
2023-05-19T09:05:08.837Z,16.08
2023-05-19T09:07:10.905Z,16.13
2023-05-19T09:09:12.554Z,16.16
2023-05-19T09:19:30.996Z,16.20
2023-05-19T09:21:33.302Z,16.27
2023-05-19T09:23:34.869Z,16.36
2023-05-19T09:42:37.802Z,16.49
2023-05-19T09:44:39.349Z,16.55
2023-05-19T09:46:51.255Z,16.67
2023-05-19T09:48:57.632Z,16.80
2023-05-19T09:51:01.035Z,16.93
2023-05-19T09:53:04.055Z,17.06
2023-05-19T09:55:09.156Z,17.20
2023-05-19T09:57:10.709Z,17.35
2023-05-19T09:59:16.065Z,17.48
2023-05-19T10:01:18.139Z,17.60
2023-05-19T10:03:20.307Z,17.74
2023-05-19T10:05:21.994Z,17.82
2023-05-19T10:07:24.612Z,17.85
2023-05-19T10:09:27.880Z,17.84
2023-05-19T10:11:30.710Z,17.97
2023-05-19T10:13:35.814Z,18.18
2023-05-19T10:15:50.027Z,18.40
2023-05-19T10:17:59.515Z,18.43
2023-05-19T10:20:01.211Z,18.37
2023-05-19T10:22:03.147Z,18.38
2023-05-19T10:24:04.765Z,18.37
2023-05-19T10:26:07.868Z,18.36
2023-05-19T10:28:13.768Z,18.63
2023-05-19T10:30:20.617Z,18.82
2023-05-19T10:32:26.759Z,19.00
2023-05-19T10:34:54.278Z,19.04
2023-05-19T10:37:10.301Z,19.31
2023-05-19T10:39:22.059Z,19.69
2023-05-19T10:41:47.795Z,20.13
2023-05-19T10:44:04.644Z,20.52
2023-05-19T10:46:06.426Z,20.69
2023-05-19T10:48:12.411Z,20.95
2023-05-19T10:50:14.094Z,21.17
2023-05-19T10:52:23.171Z,21.66
2023-05-19T10:54:46.533Z,22.28
2023-05-19T10:56:48.554Z,22.12
2023-05-19T10:58:50.402Z,21.68
2023-05-19T11:01:00.992Z,21.23
2023-05-19T11:03:16.674Z,21.27
2023-05-19T11:05:19.470Z,21.87
2023-05-19T11:07:22.332Z,22.49
2023-05-19T11:09:37.886Z,23.12
2023-05-19T11:12:03.764Z,23.18
2023-05-19T11:14:05.445Z,23.11
2023-05-19T11:16:08.808Z,23.58
2023-05-19T11:18:11.698Z,24.13
2023-05-19T11:20:26.413Z,24.35
2023-05-19T11:22:28.446Z,24.04
2023-05-19T11:24:40.875Z,23.54
2023-05-19T11:26:43.448Z,23.10
2023-05-19T11:28:47.541Z,22.72
2023-05-19T11:30:52.292Z,23.01
2023-05-19T11:32:54.506Z,23.54
2023-05-19T11:34:57.131Z,23.42
2023-05-19T11:36:59.399Z,22.90
2023-05-19T11:39:02.519Z,22.42
2023-05-19T11:41:04.681Z,22.11
2023-05-19T11:43:06.270Z,22.12
2023-05-19T11:45:08.512Z,22.75
2023-05-19T11:47:10.099Z,23.61
2023-05-19T11:49:11.747Z,24.34
2023-05-19T11:51:13.359Z,24.92
2023-05-19T11:53:16.785Z,25.49
2023-05-19T11:55:22.042Z,25.72
2023-05-19T11:57:23.616Z,25.17
2023-05-19T11:59:33.462Z,24.58
2023-05-19T12:01:37.150Z,24.01
2023-05-19T12:03:38.937Z,23.53
2023-05-19T12:05:46.789Z,23.13
2023-05-19T12:07:52.184Z,23.08
2023-05-19T12:09:56.584Z,22.95
2023-05-19T12:11:58.428Z,22.68
2023-05-19T12:14:00.847Z,22.43
2023-05-19T12:16:04.439Z,22.16
2023-05-19T12:18:06.578Z,21.95
2023-05-19T12:20:09.436Z,21.88
2023-05-19T12:22:12.020Z,21.94
2023-05-19T12:24:13.961Z,22.06
2023-05-19T12:26:15.621Z,22.05
2023-05-19T12:28:17.173Z,21.92
2023-05-19T12:30:24.603Z,21.85
2023-05-19T12:32:27.785Z,21.97
2023-05-19T12:34:30.173Z,22.23
2023-05-19T12:36:32.529Z,22.24
2023-05-19T12:38:37.332Z,22.13
2023-05-19T12:40:42.436Z,22.02
2023-05-19T12:42:45.379Z,21.91
2023-05-19T12:44:52.593Z,21.79
2023-05-19T12:46:54.367Z,21.66
2023-05-19T12:49:00.766Z,21.53
2023-05-19T12:51:02.362Z,21.51
2023-05-19T12:53:08.727Z,21.57
2023-05-19T12:55:14.386Z,21.53
2023-05-19T12:57:20.946Z,21.47
2023-05-19T12:59:37.961Z,21.43
2023-05-19T13:01:40.478Z,21.35
2023-05-19T13:03:42.899Z,21.41
2023-05-19T13:05:46.899Z,21.41
2023-05-19T13:07:56.659Z,21.43
2023-05-19T13:09:58.681Z,21.38
2023-05-19T13:12:00.283Z,21.38
2023-05-19T13:14:01.780Z,21.42
2023-05-19T13:16:03.476Z,21.25
2023-05-19T13:18:08.589Z,21.26
2023-05-19T13:20:10.642Z,21.40
2023-05-19T13:22:12.156Z,21.52
2023-05-19T13:24:14.169Z,21.46
2023-05-19T13:26:15.695Z,21.48
2023-05-19T13:28:17.226Z,21.42
2023-05-19T13:30:19.108Z,21.29
2023-05-19T13:32:20.672Z,21.17
2023-05-19T13:34:22.190Z,21.15
2023-05-19T13:36:23.790Z,21.14
2023-05-19T13:38:25.314Z,21.14
2023-05-19T13:40:28.196Z,21.01
2023-05-19T13:42:29.755Z,20.90
2023-05-19T13:44:32.620Z,20.80
2023-05-19T13:46:44.832Z,20.66
2023-05-19T13:48:48.016Z,20.50
2023-05-19T13:50:50.913Z,20.48
2023-05-19T13:52:52.569Z,20.58
2023-05-19T13:54:57.347Z,20.69
2023-05-19T13:56:59.163Z,20.84
2023-05-19T13:59:00.786Z,20.93
2023-05-19T14:01:02.289Z,20.93
2023-05-19T14:03:03.904Z,20.99
2023-05-19T14:05:06.961Z,20.95
2023-05-19T14:07:09.663Z,20.82
2023-05-19T14:09:11.178Z,20.72
2023-05-19T14:11:21.904Z,20.61
2023-05-19T14:15:28.772Z,20.60
2023-05-19T14:17:30.397Z,20.58
2023-05-19T14:19:32.030Z,20.64
2023-05-19T14:21:34.032Z,20.62
2023-05-19T14:23:35.572Z,20.59
2023-05-19T14:25:37.197Z,20.54
2023-05-19T14:27:39.973Z,20.58
2023-05-19T14:29:42.178Z,20.53
2023-05-19T14:31:43.876Z,20.52
2023-05-19T14:33:45.527Z,20.48
2023-05-19T14:35:47.094Z,20.51
2023-05-19T14:37:48.578Z,20.56
2023-05-19T14:39:50.091Z,20.58
2023-05-19T14:41:52.954Z,20.61
2023-05-19T14:43:54.490Z,20.66
2023-05-19T14:45:56.830Z,20.68
2023-05-19T14:47:58.474Z,20.64
2023-05-19T14:50:00.173Z,20.65
2023-05-19T14:52:01.701Z,20.63
2023-05-19T14:54:03.377Z,20.54
2023-05-19T14:56:06.509Z,20.42
2023-05-19T14:58:16.235Z,20.32
2023-05-19T15:00:28.388Z,20.23
2023-05-19T15:02:30.187Z,20.17
2023-05-19T15:04:31.905Z,20.15
2023-05-19T15:06:33.521Z,20.12
2023-05-19T15:08:35.185Z,20.15
2023-05-19T15:10:36.766Z,20.11
2023-05-19T15:12:38.322Z,20.07
2023-05-19T15:14:39.875Z,20.06
2023-05-19T15:16:41.656Z,20.00
2023-05-19T15:18:44.174Z,19.98
2023-05-19T15:20:46.514Z,19.93
2023-05-19T15:22:48.767Z,19.95
2023-05-19T15:24:50.413Z,20.03
2023-05-19T15:26:52.439Z,20.16
2023-05-19T15:28:53.968Z,20.25
2023-05-19T15:30:55.581Z,20.38
2023-05-19T15:32:57.147Z,20.38
2023-05-19T15:34:58.710Z,20.34
2023-05-19T15:37:00.379Z,20.27
2023-05-19T15:39:03.570Z,20.22
2023-05-19T15:41:07.731Z,20.19
2023-05-19T15:43:09.226Z,20.17
2023-05-19T15:45:10.774Z,20.16
2023-05-19T15:47:12.366Z,20.16
2023-05-19T15:49:13.924Z,20.19
2023-05-19T15:51:16.094Z,20.17
2023-05-19T15:53:18.166Z,20.16
2023-05-19T15:55:20.465Z,20.17
2023-05-19T15:57:22.043Z,20.22
2023-05-19T15:59:23.585Z,20.23
2023-05-19T16:01:26.334Z,20.22
2023-05-19T16:03:28.016Z,20.25
2023-05-19T16:05:29.673Z,20.24
2023-05-19T16:07:31.144Z,20.23
2023-05-19T16:09:32.750Z,20.20
2023-05-19T16:11:34.306Z,20.18
2023-05-19T16:13:35.974Z,20.13
2023-05-19T16:15:37.559Z,20.01
2023-05-19T16:17:39.124Z,19.89
2023-05-19T16:19:40.842Z,19.83
2023-05-19T16:21:42.385Z,19.76
2023-05-19T16:23:43.896Z,19.77
2023-05-19T16:25:45.459Z,19.90
2023-05-19T16:27:46.964Z,19.99
2023-05-19T16:29:48.537Z,20.11
2023-05-19T16:31:50.084Z,20.17
2023-05-19T16:33:51.603Z,20.19
2023-05-19T16:35:53.230Z,20.24
2023-05-19T16:37:55.051Z,20.26
2023-05-19T16:39:56.714Z,20.23
2023-05-19T16:41:58.296Z,20.25
2023-05-19T16:44:00.012Z,20.22
2023-05-19T16:46:04.032Z,20.18
2023-05-19T16:48:05.983Z,20.13
2023-05-19T16:50:07.888Z,20.06
2023-05-19T16:52:10.411Z,20.02
2023-05-19T16:54:11.908Z,19.95
2023-05-19T16:56:13.475Z,19.90
2023-05-19T16:58:15.105Z,19.84
2023-05-19T17:00:16.798Z,19.80
2023-05-19T17:02:18.579Z,19.79
2023-05-19T17:04:20.136Z,19.76
2023-05-19T17:06:21.803Z,19.71
2023-05-19T17:08:23.412Z,19.71
2023-05-19T17:10:24.956Z,19.68
2023-05-19T17:12:26.550Z,19.65
2023-05-19T17:14:28.114Z,19.56
2023-05-19T17:16:29.648Z,19.55
2023-05-19T17:18:31.452Z,19.52
2023-05-19T17:20:33.307Z,19.49
2023-05-19T17:22:34.944Z,19.43
2023-05-19T17:24:36.484Z,19.41
2023-05-19T17:26:37.995Z,19.35
2023-05-19T17:28:39.563Z,19.33
2023-05-19T17:30:41.369Z,19.31
2023-05-19T17:32:43.046Z,19.29
2023-05-19T17:34:44.598Z,19.23
2023-05-19T17:36:46.274Z,19.22
2023-05-19T17:38:47.755Z,19.21
2023-05-19T17:40:49.247Z,19.18
2023-05-19T17:42:50.733Z,19.13
2023-05-19T17:44:52.266Z,19.18
2023-05-19T17:46:53.869Z,19.27
2023-05-19T17:48:55.560Z,19.31
2023-05-19T17:50:57.726Z,19.26
2023-05-19T17:52:59.534Z,19.17
2023-05-19T17:55:01.318Z,19.09
2023-05-19T17:57:07.661Z,19.07
2023-05-19T17:59:09.645Z,19.05
2023-05-19T18:01:11.272Z,19.04
2023-05-19T18:03:13.224Z,18.98
2023-05-19T18:05:15.404Z,18.94
2023-05-19T18:07:18.022Z,18.88
2023-05-19T18:09:19.954Z,18.86
2023-05-19T18:11:22.663Z,18.79
2023-05-19T18:13:24.175Z,18.71
2023-05-19T18:15:25.832Z,18.67
2023-05-19T18:17:27.487Z,18.65
2023-05-19T18:19:29.126Z,18.56
2023-05-19T18:21:31.406Z,18.46
2023-05-19T18:23:33.023Z,18.42
2023-05-19T18:25:35.710Z,18.38
2023-05-19T18:27:37.197Z,18.33
2023-05-19T18:29:38.842Z,18.25
2023-05-19T18:31:43.533Z,18.20
2023-05-19T18:33:48.242Z,18.14
2023-05-19T18:35:49.741Z,18.08
2023-05-19T18:37:55.271Z,18.06
2023-05-19T18:39:56.855Z,18.04
2023-05-19T18:41:58.425Z,17.96
2023-05-19T18:43:59.961Z,17.89
2023-05-19T18:46:01.541Z,17.83
2023-05-19T18:48:03.166Z,17.81
2023-05-19T18:50:05.255Z,17.74
2023-05-19T18:52:06.964Z,17.73
2023-05-19T18:54:08.536Z,17.67
2023-05-19T18:56:15.011Z,17.58
2023-05-19T18:58:20.347Z,17.55
2023-05-19T19:00:21.859Z,17.51
2023-05-19T19:02:23.507Z,17.40
2023-05-19T19:04:25.121Z,17.38
2023-05-19T19:06:26.759Z,17.34
2023-05-19T19:08:28.279Z,17.34
2023-05-19T19:10:33.207Z,17.27
2023-05-19T19:12:35.033Z,17.23
2023-05-19T19:14:36.825Z,17.23
2023-05-19T19:16:38.561Z,17.17
2023-05-19T19:18:40.233Z,17.15
2023-05-19T19:20:42.089Z,17.09
2023-05-19T19:22:43.686Z,17.07
2023-05-19T19:24:45.385Z,17.03
2023-05-19T19:26:51.488Z,16.98
2023-05-19T19:28:53.027Z,16.98
2023-05-19T19:30:54.642Z,16.95
2023-05-19T19:32:57.011Z,16.94
2023-05-19T19:34:58.595Z,16.92
2023-05-19T19:37:00.365Z,16.91
2023-05-19T19:39:01.993Z,16.91
2023-05-19T19:41:03.796Z,16.87
2023-05-19T19:43:05.495Z,16.86
2023-05-19T19:45:07.562Z,16.81
2023-05-19T19:47:09.159Z,16.81
2023-05-19T19:49:10.789Z,16.78
2023-05-19T19:51:12.506Z,16.77
2023-05-19T19:53:14.041Z,16.76
2023-05-19T19:55:15.898Z,16.75
2023-05-19T19:57:17.738Z,16.72
2023-05-19T19:59:19.303Z,16.70
2023-05-19T20:01:23.448Z,16.69
2023-05-19T20:03:25.844Z,16.67
2023-05-19T20:05:27.422Z,16.64
2023-05-19T20:07:29.382Z,16.63
2023-05-19T20:09:31.084Z,16.59
2023-05-19T20:11:32.668Z,16.56
2023-05-19T20:13:34.176Z,16.56
2023-05-19T20:15:35.667Z,16.56
2023-05-19T20:17:37.168Z,16.52
2023-05-19T20:19:38.766Z,16.51
2023-05-19T20:21:40.396Z,16.48
2023-05-19T20:23:42.013Z,16.46
2023-05-19T20:25:54.820Z,16.43
2023-05-19T20:28:04.484Z,16.39
2023-05-19T20:30:07.106Z,16.34
2023-05-19T20:32:08.854Z,16.32
2023-05-19T20:34:10.633Z,16.29
2023-05-19T20:36:12.318Z,16.25
2023-05-19T20:38:13.842Z,16.25
2023-05-19T20:40:15.536Z,16.23
2023-05-19T20:42:17.098Z,16.18
2023-05-19T20:44:18.725Z,16.14
2023-05-19T20:46:20.398Z,16.11
2023-05-19T20:48:21.938Z,16.10
2023-05-19T20:50:23.487Z,16.06
2023-05-19T20:52:25.096Z,16.02
2023-05-19T20:54:26.708Z,15.96
2023-05-19T20:56:28.240Z,15.94
2023-05-19T20:58:30.329Z,15.90
2023-05-19T21:00:32.821Z,15.86
2023-05-19T21:02:34.673Z,15.83
2023-05-19T21:04:36.345Z,15.78
2023-05-19T21:06:38.230Z,15.76
2023-05-19T21:08:39.739Z,15.74
2023-05-19T21:10:41.636Z,15.70
2023-05-19T21:12:43.374Z,15.64
2023-05-19T21:14:44.854Z,15.62
2023-05-19T21:16:50.647Z,15.58
2023-05-19T21:18:52.302Z,15.54
2023-05-19T21:20:53.800Z,15.52
2023-05-19T21:22:56.572Z,15.50
2023-05-19T21:24:58.388Z,15.49
2023-05-19T21:26:59.888Z,15.45
2023-05-19T21:29:01.513Z,15.43
2023-05-19T21:31:05.353Z,15.39
2023-05-19T21:33:07.057Z,15.34
2023-05-19T21:35:08.880Z,15.34
2023-05-19T21:37:10.521Z,15.33
2023-05-19T21:39:12.030Z,15.28
2023-05-19T21:41:13.554Z,15.26
2023-05-19T21:43:15.031Z,15.23
2023-05-19T21:45:16.583Z,15.23
2023-05-19T21:47:18.165Z,15.22
2023-05-19T21:49:20.195Z,15.19
2023-05-19T21:51:21.688Z,15.18
2023-05-19T21:53:24.197Z,15.15
2023-05-19T21:55:25.736Z,15.11
2023-05-19T21:57:27.280Z,15.08
2023-05-19T21:59:28.782Z,15.06
2023-05-19T22:01:30.294Z,15.04
2023-05-19T22:03:31.878Z,15.04
2023-05-19T22:05:35.136Z,15.03
2023-05-19T22:07:37.011Z,15.02
2023-05-19T22:09:38.588Z,15.00
2023-05-19T22:11:40.161Z,14.96
2023-05-19T22:13:41.865Z,14.94
2023-05-19T22:15:43.383Z,14.93
2023-05-19T22:17:45.053Z,14.90
2023-05-19T22:19:46.575Z,14.85
2023-05-19T22:21:48.333Z,14.85
2023-05-19T22:23:52.360Z,14.83
2023-05-19T22:25:53.912Z,14.84
2023-05-19T22:27:55.441Z,14.82
2023-05-19T22:29:57.225Z,14.79
2023-05-19T22:31:58.867Z,14.79
2023-05-19T22:34:00.616Z,14.75
2023-05-19T22:36:02.123Z,14.75
2023-05-19T22:38:03.611Z,14.75
2023-05-19T22:40:05.954Z,14.74
2023-05-19T22:42:07.450Z,14.73
2023-05-19T22:44:10.397Z,14.71
2023-05-19T22:46:11.955Z,14.71
2023-05-19T22:48:13.497Z,14.69
2023-05-19T22:50:16.574Z,14.68
2023-05-19T22:52:18.487Z,14.68
2023-05-19T22:54:20.004Z,14.69
2023-05-19T22:56:22.578Z,14.66
2023-05-19T22:58:24.088Z,14.65
2023-05-19T23:00:25.630Z,14.63
2023-05-19T23:02:27.264Z,14.62
2023-05-19T23:04:28.869Z,14.57
2023-05-19T23:06:31.483Z,14.57
2023-05-19T23:08:33.022Z,14.56
2023-05-19T23:10:34.498Z,14.56
2023-05-19T23:12:36.121Z,14.56
2023-05-19T23:14:37.614Z,14.54
2023-05-19T23:16:39.151Z,14.51
2023-05-19T23:18:40.853Z,14.50
2023-05-19T23:20:42.405Z,14.50
2023-05-19T23:22:43.914Z,14.48
2023-05-19T23:24:45.445Z,14.49
2023-05-19T23:26:46.950Z,14.42
2023-05-19T23:28:48.452Z,14.42
2023-05-19T23:30:53.232Z,14.38
2023-05-19T23:32:54.762Z,14.38
2023-05-19T23:34:56.391Z,14.35
2023-05-19T23:36:57.928Z,14.32
2023-05-19T23:39:03.145Z,14.30
2023-05-19T23:41:05.184Z,14.26
2023-05-19T23:43:06.880Z,14.21
2023-05-19T23:45:08.626Z,14.20
2023-05-19T23:47:10.381Z,14.18
2023-05-19T23:49:11.946Z,14.14
2023-05-19T23:51:13.602Z,14.13
2023-05-19T23:53:15.164Z,14.11
2023-05-19T23:55:16.869Z,14.09
2023-05-19T23:57:18.357Z,14.06
2023-05-19T23:59:19.857Z,14.05
